createdAt,value
2022-12-09T00:00:15.868Z,1001.11
2022-12-09T00:01:15.847Z,1001.14
2022-12-09T00:02:15.875Z,1001.20
2022-12-09T00:03:20.121Z,1001.22
2022-12-09T00:04:16.093Z,1001.20
2022-12-09T00:05:15.939Z,1001.22
2022-12-09T00:06:15.605Z,1001.22
2022-12-09T00:07:15.577Z,1001.24
2022-12-09T00:08:15.572Z,1001.22
2022-12-09T00:09:15.881Z,1001.21
2022-12-09T00:10:15.491Z,1001.21
2022-12-09T00:11:15.592Z,1001.23
2022-12-09T00:12:15.489Z,1001.23
2022-12-09T00:13:15.423Z,1001.22
2022-12-09T00:14:15.377Z,1001.19
2022-12-09T00:15:15.525Z,1001.17
2022-12-09T00:16:15.608Z,1001.18
2022-12-09T00:17:15.536Z,1001.16
2022-12-09T00:18:15.546Z,1001.17
2022-12-09T00:19:15.236Z,1001.18
2022-12-09T00:20:15.218Z,1001.15
2022-12-09T00:21:15.210Z,1001.13
2022-12-09T00:22:15.295Z,1001.12
2022-12-09T00:23:15.284Z,1001.10
2022-12-09T00:24:15.327Z,1001.11
2022-12-09T00:25:15.225Z,1001.10
2022-12-09T00:26:15.041Z,1001.09
2022-12-09T00:27:15.009Z,1001.10
2022-12-09T00:28:14.977Z,1001.16
2022-12-09T00:29:14.952Z,1001.14
2022-12-09T00:30:14.999Z,1001.17
2022-12-09T00:31:15.102Z,1001.19
2022-12-09T00:32:14.957Z,1001.23
2022-12-09T00:33:15.032Z,1001.22
2022-12-09T00:34:14.808Z,1001.24
2022-12-09T00:35:15.021Z,1001.27
2022-12-09T00:36:15.064Z,1001.28
2022-12-09T00:37:14.968Z,1001.30
2022-12-09T00:38:14.841Z,1001.29
2022-12-09T00:39:14.816Z,1001.30
2022-12-09T00:40:14.639Z,1001.28
2022-12-09T00:41:14.712Z,1001.31
2022-12-09T00:42:14.584Z,1001.27
2022-12-09T00:43:14.561Z,1001.28
2022-12-09T00:44:14.725Z,1001.29
2022-12-09T00:45:14.752Z,1001.29
2022-12-09T00:46:14.594Z,1001.27
2022-12-09T00:47:14.659Z,1001.24
2022-12-09T00:48:14.418Z,1001.27
2022-12-09T00:49:14.416Z,1001.27
2022-12-09T00:50:14.540Z,1001.26
2022-12-09T00:51:14.489Z,1001.27
2022-12-09T00:52:14.541Z,1001.26
2022-12-09T00:53:14.299Z,1001.26
2022-12-09T00:54:14.457Z,1001.26
2022-12-09T00:55:14.505Z,1001.24
2022-12-09T00:56:14.193Z,1001.18
2022-12-09T00:57:14.159Z,1001.20
2022-12-09T00:58:14.435Z,1001.21
2022-12-09T00:59:14.312Z,1001.19
2022-12-09T01:00:14.221Z,1001.20
2022-12-09T01:01:14.228Z,1001.22
2022-12-09T01:02:14.256Z,1001.28
2022-12-09T01:03:14.464Z,1001.26
2022-12-09T01:04:14.155Z,1001.27
2022-12-09T01:05:14.309Z,1001.22
2022-12-09T01:06:13.906Z,1001.21
2022-12-09T01:07:13.899Z,1001.20
2022-12-09T01:08:13.904Z,1001.18
2022-12-09T01:09:14.148Z,1001.20
2022-12-09T01:10:14.042Z,1001.17
2022-12-09T01:11:13.895Z,1001.18
2022-12-09T01:12:13.742Z,1001.18
2022-12-09T01:13:13.942Z,1001.15
2022-12-09T01:14:13.786Z,1001.19
2022-12-09T01:15:13.692Z,1001.16
2022-12-09T01:16:13.911Z,1001.19
2022-12-09T01:17:13.690Z,1001.21
2022-12-09T01:18:13.612Z,1001.19
2022-12-09T01:19:13.694Z,1001.19
2022-12-09T01:20:13.751Z,1001.24
2022-12-09T01:21:13.563Z,1001.27
2022-12-09T01:22:13.454Z,1001.29
2022-12-09T01:23:13.776Z,1001.29
2022-12-09T01:24:13.647Z,1001.28
2022-12-09T01:25:13.501Z,1001.26
2022-12-09T01:26:13.464Z,1001.29
2022-12-09T01:27:13.310Z,1001.30
2022-12-09T01:28:13.278Z,1001.30
2022-12-09T01:29:13.269Z,1001.30
2022-12-09T01:30:13.448Z,1001.32
2022-12-09T01:31:13.356Z,1001.31
2022-12-09T01:32:13.634Z,1001.30
2022-12-09T01:33:13.310Z,1001.32
2022-12-09T01:34:13.405Z,1001.28
2022-12-09T01:35:13.382Z,1001.33
2022-12-09T01:36:13.056Z,1001.31
2022-12-09T01:37:13.035Z,1001.35
2022-12-09T01:38:13.052Z,1001.34
2022-12-09T01:39:13.236Z,1001.33
2022-12-09T01:40:13.250Z,1001.33
2022-12-09T01:41:12.954Z,1001.26
2022-12-09T01:42:13.217Z,1001.33
2022-12-09T01:43:12.893Z,1001.32
2022-12-09T01:44:13.130Z,1001.30
2022-12-09T01:45:13.026Z,1001.25
2022-12-09T01:46:13.040Z,1001.28
2022-12-09T01:47:12.934Z,1001.30
2022-12-09T01:48:12.937Z,1001.25
2022-12-09T01:49:12.695Z,1001.22
2022-12-09T01:50:12.665Z,1001.20
2022-12-09T01:51:12.630Z,1001.24
2022-12-09T01:52:12.642Z,1001.27
2022-12-09T01:53:12.571Z,1001.21
2022-12-09T01:54:12.620Z,1001.22
2022-12-09T01:55:12.895Z,1001.19
2022-12-09T01:56:12.714Z,1001.24
2022-12-09T01:57:12.615Z,1001.21
2022-12-09T01:58:12.594Z,1001.21
2022-12-09T01:59:12.401Z,1001.19
2022-12-09T02:00:12.904Z,1001.22
2022-12-09T02:01:12.714Z,1001.19
2022-12-09T02:02:12.401Z,1001.20
2022-12-09T02:03:12.724Z,1001.18
2022-12-09T02:04:12.790Z,1001.17
2022-12-09T02:05:12.336Z,1001.17
2022-12-09T02:06:12.210Z,1001.16
2022-12-09T02:07:12.311Z,1001.15
2022-12-09T02:08:12.162Z,1001.13
2022-12-09T02:09:12.254Z,1001.17
2022-12-09T02:10:12.443Z,1001.20
2022-12-09T02:11:12.067Z,1001.19
2022-12-09T02:12:12.109Z,1001.18
2022-12-09T02:13:12.323Z,1001.17
2022-12-09T02:14:11.997Z,1001.18
2022-12-09T02:15:11.949Z,1001.13
2022-12-09T02:16:12.085Z,1001.16
2022-12-09T02:17:11.948Z,1001.14
2022-12-09T02:18:12.039Z,1001.17
2022-12-09T02:19:12.075Z,1001.19
2022-12-09T02:20:12.436Z,1001.19
2022-12-09T02:21:11.908Z,1001.14
2022-12-09T02:22:12.089Z,1001.17
2022-12-09T02:23:11.729Z,1001.17
2022-12-09T02:24:11.703Z,1001.15
2022-12-09T02:25:12.007Z,1001.15
2022-12-09T02:26:11.961Z,1001.10
2022-12-09T02:27:11.608Z,1001.13
2022-12-09T02:28:11.760Z,1001.10
2022-12-09T02:29:11.943Z,1001.13
2022-12-09T02:30:12.305Z,1001.13
2022-12-09T02:31:11.925Z,1001.16
2022-12-09T02:32:11.584Z,1001.08
2022-12-09T02:33:11.531Z,1001.14
2022-12-09T02:34:11.656Z,1001.11
2022-12-09T02:35:11.400Z,1001.13
2022-12-09T02:36:11.564Z,1001.13
2022-12-09T02:37:11.402Z,1001.14
2022-12-09T02:38:11.308Z,1001.14
2022-12-09T02:39:11.274Z,1001.10
2022-12-09T02:40:11.747Z,1001.10
2022-12-09T02:41:11.254Z,1001.10
2022-12-09T02:42:11.190Z,1001.07
2022-12-09T02:43:11.155Z,1001.06
2022-12-09T02:44:11.199Z,1001.09
2022-12-09T02:45:11.164Z,1001.05
2022-12-09T02:46:11.093Z,1001.06
2022-12-09T02:47:11.137Z,1001.02
2022-12-09T02:48:11.230Z,1000.99
2022-12-09T02:49:10.993Z,1001.00
2022-12-09T02:50:11.324Z,1001.01
2022-12-09T02:51:10.936Z,1001.00
2022-12-09T02:52:10.908Z,1000.94
2022-12-09T02:53:11.059Z,1000.97
2022-12-09T02:54:10.863Z,1000.97
2022-12-09T02:55:10.821Z,1000.97
2022-12-09T02:56:11.016Z,1000.98
2022-12-09T02:57:11.052Z,1000.98
2022-12-09T02:58:10.738Z,1000.96
2022-12-09T02:59:10.752Z,1000.96
2022-12-09T03:00:11.378Z,1000.99
2022-12-09T03:01:10.878Z,1000.97
2022-12-09T03:02:11.089Z,1000.99
2022-12-09T03:03:10.925Z,1000.95
2022-12-09T03:04:10.731Z,1000.93
2022-12-09T03:05:10.538Z,1000.92
2022-12-09T03:06:10.926Z,1000.93
2022-12-09T03:07:10.485Z,1000.91
2022-12-09T03:08:10.613Z,1000.92
2022-12-09T03:09:10.587Z,1000.91
2022-12-09T03:10:11.205Z,1000.87
2022-12-09T03:11:10.641Z,1000.92
2022-12-09T03:12:10.345Z,1000.90
2022-12-09T03:13:10.313Z,1000.86
2022-12-09T03:14:10.493Z,1000.85
2022-12-09T03:15:10.425Z,1000.86
2022-12-09T03:16:10.687Z,1000.85
2022-12-09T03:17:10.272Z,1000.81
2022-12-09T03:18:10.303Z,1000.86
2022-12-09T03:19:10.185Z,1000.81
2022-12-09T03:20:10.433Z,1000.85
2022-12-09T03:21:10.351Z,1000.84
2022-12-09T03:22:10.444Z,1000.87
2022-12-09T03:23:10.028Z,1000.87
2022-12-09T03:24:10.291Z,1000.89
2022-12-09T03:25:10.353Z,1000.89
2022-12-09T03:26:10.218Z,1000.93
2022-12-09T03:27:09.915Z,1000.89
2022-12-09T03:28:09.935Z,1000.84
2022-12-09T03:29:09.860Z,1000.80
2022-12-09T03:30:10.284Z,1000.80
2022-12-09T03:31:09.801Z,1000.79
2022-12-09T03:32:10.208Z,1000.76
2022-12-09T03:33:10.272Z,1000.75
2022-12-09T03:34:09.768Z,1000.72
2022-12-09T03:35:10.041Z,1000.74
2022-12-09T03:36:09.706Z,1000.72
2022-12-09T03:37:09.639Z,1000.71
2022-12-09T03:38:09.659Z,1000.71
2022-12-09T03:39:09.706Z,1000.75
2022-12-09T03:40:13.944Z,1000.74
2022-12-09T03:41:09.754Z,1000.71
2022-12-09T03:42:09.636Z,1000.69
2022-12-09T03:43:09.750Z,1000.68
2022-12-09T03:44:09.736Z,1000.67
2022-12-09T03:45:09.410Z,1000.71
2022-12-09T03:46:09.628Z,1000.69
2022-12-09T03:47:09.821Z,1000.70
2022-12-09T03:48:09.705Z,1000.72
2022-12-09T03:49:09.390Z,1000.68
2022-12-09T03:50:09.560Z,1000.69
2022-12-09T03:51:09.331Z,1000.67
2022-12-09T03:52:09.328Z,1000.67
2022-12-09T03:53:09.523Z,1000.66
2022-12-09T03:54:09.368Z,1000.68
2022-12-09T03:55:09.403Z,1000.70
2022-12-09T03:56:09.157Z,1000.67
2022-12-09T03:57:12.459Z,1000.67
2022-12-09T03:58:09.048Z,1000.68
2022-12-09T03:59:09.422Z,1000.66
2022-12-09T04:00:09.750Z,1000.64
2022-12-09T04:01:09.077Z,1000.67
2022-12-09T04:02:09.413Z,1000.64
2022-12-09T04:03:09.212Z,1000.62
2022-12-09T04:04:09.098Z,1000.60
2022-12-09T04:05:09.364Z,1000.56
2022-12-09T04:06:08.930Z,1000.59
2022-12-09T04:07:08.801Z,1000.58
2022-12-09T04:08:08.866Z,1000.59
2022-12-09T04:09:09.189Z,1000.58
2022-12-09T04:10:09.378Z,1000.57
2022-12-09T04:11:09.040Z,1000.56
2022-12-09T04:12:08.935Z,1000.56
2022-12-09T04:13:08.661Z,1000.55
2022-12-09T04:14:15.109Z,1000.55
2022-12-09T04:15:08.861Z,1000.55
2022-12-09T04:16:08.539Z,1000.55
2022-12-09T04:17:08.661Z,1000.53
2022-12-09T04:18:08.884Z,1000.56
2022-12-09T04:19:08.512Z,1000.54
2022-12-09T04:20:09.270Z,1000.54
2022-12-09T04:21:08.532Z,1000.52
2022-12-09T04:22:08.455Z,1000.53
2022-12-09T04:23:08.713Z,1000.53
2022-12-09T04:24:08.327Z,1000.53
2022-12-09T04:25:08.356Z,1000.50
2022-12-09T04:26:08.262Z,1000.50
2022-12-09T04:27:08.544Z,1000.53
2022-12-09T04:28:08.200Z,1000.54
2022-12-09T04:29:08.296Z,1000.51
2022-12-09T04:30:08.858Z,1000.52
2022-12-09T04:31:08.222Z,1000.54
2022-12-09T04:32:08.554Z,1000.47
2022-12-09T04:33:08.057Z,1000.49
2022-12-09T04:34:09.826Z,1000.47
2022-12-09T04:35:08.250Z,1000.50
2022-12-09T04:36:07.981Z,1000.46
2022-12-09T04:37:08.140Z,1000.44
2022-12-09T04:38:07.921Z,1000.43
2022-12-09T04:39:08.251Z,1000.44
2022-12-09T04:40:08.316Z,1000.44
2022-12-09T04:41:07.922Z,1000.46
2022-12-09T04:42:08.105Z,1000.44
2022-12-09T04:43:07.791Z,1000.45
2022-12-09T04:44:07.858Z,1000.46
2022-12-09T04:45:07.791Z,1000.44
2022-12-09T04:46:08.124Z,1000.45
2022-12-09T04:47:07.975Z,1000.40
2022-12-09T04:48:07.744Z,1000.43
2022-12-09T04:49:07.606Z,1000.41
2022-12-09T04:50:08.004Z,1000.45
2022-12-09T04:51:07.688Z,1000.47
2022-12-09T04:52:07.530Z,1000.48
2022-12-09T04:53:07.828Z,1000.44
2022-12-09T04:54:07.468Z,1000.40
2022-12-09T04:55:07.699Z,1000.44
2022-12-09T04:56:07.411Z,1000.43
2022-12-09T04:57:07.380Z,1000.45
2022-12-09T04:58:07.363Z,1000.46
2022-12-09T04:59:07.467Z,1000.42
2022-12-09T05:00:07.694Z,1000.45
2022-12-09T05:01:07.609Z,1000.46
2022-12-09T05:02:07.333Z,1000.44
2022-12-09T05:03:07.333Z,1000.44
2022-12-09T05:04:07.388Z,1000.46
2022-12-09T05:05:07.646Z,1000.44
2022-12-09T05:06:07.272Z,1000.44
2022-12-09T05:07:07.266Z,1000.47
2022-12-09T05:08:07.349Z,1000.44
2022-12-09T05:09:07.251Z,1000.44
2022-12-09T05:10:07.983Z,1000.48
2022-12-09T05:11:07.090Z,1000.45
2022-12-09T05:12:07.039Z,1000.43
2022-12-09T05:13:07.209Z,1000.42
2022-12-09T05:14:07.187Z,1000.41
2022-12-09T05:15:07.121Z,1000.42
2022-12-09T05:16:12.139Z,1000.45
2022-12-09T05:17:07.289Z,1000.43
2022-12-09T05:18:06.943Z,1000.45
2022-12-09T05:19:07.116Z,1000.47
2022-12-09T05:20:07.375Z,1000.49
2022-12-09T05:21:06.952Z,1000.51
2022-12-09T05:22:06.990Z,1000.52
2022-12-09T05:23:09.575Z,1000.51
2022-12-09T05:24:06.958Z,1000.48
2022-12-09T05:25:06.804Z,1000.46
2022-12-09T05:26:07.024Z,1000.46
2022-12-09T05:27:06.560Z,1000.43
2022-12-09T05:28:06.843Z,1000.41
2022-12-09T05:29:06.529Z,1000.40
2022-12-09T05:30:07.541Z,1000.40
2022-12-09T05:31:06.599Z,1000.37
2022-12-09T05:32:06.546Z,1000.37
2022-12-09T05:33:06.739Z,1000.38
2022-12-09T05:34:06.564Z,1000.37
2022-12-09T05:35:06.405Z,1000.35
2022-12-09T05:36:06.695Z,1000.37
2022-12-09T05:37:06.581Z,1000.38
2022-12-09T05:38:06.227Z,1000.37
2022-12-09T05:39:06.276Z,1000.32
2022-12-09T05:40:07.067Z,1000.35
2022-12-09T05:41:06.609Z,1000.33
2022-12-09T05:42:06.551Z,1000.33
2022-12-09T05:43:06.236Z,1000.35
2022-12-09T05:44:06.463Z,1000.30
2022-12-09T05:45:06.027Z,1000.32
2022-12-09T05:46:06.573Z,1000.31
2022-12-09T05:47:06.088Z,1000.33
2022-12-09T05:48:06.107Z,1000.33
2022-12-09T05:49:06.479Z,1000.33
2022-12-09T05:50:08.217Z,1000.32
2022-12-09T05:51:05.966Z,1000.32
2022-12-09T05:52:06.272Z,1000.31
2022-12-09T05:53:05.849Z,1000.28
2022-12-09T05:54:06.340Z,1000.28
2022-12-09T05:55:06.046Z,1000.29
2022-12-09T05:56:05.979Z,1000.34
2022-12-09T05:57:05.910Z,1000.36
2022-12-09T05:58:05.814Z,1000.36
2022-12-09T05:59:05.653Z,1000.34
2022-12-09T06:00:06.801Z,1000.37
2022-12-09T06:01:05.736Z,1000.35
2022-12-09T06:02:10.048Z,1000.35
2022-12-09T06:03:06.077Z,1000.36
2022-12-09T06:04:05.892Z,1000.39
2022-12-09T06:05:05.935Z,1000.39
2022-12-09T06:06:05.789Z,1000.37
2022-12-09T06:07:06.038Z,1000.40
2022-12-09T06:08:07.463Z,1000.41
2022-12-09T06:09:05.850Z,1000.41
2022-12-09T06:10:05.842Z,1000.41
2022-12-09T06:11:05.799Z,1000.41
2022-12-09T06:12:05.428Z,1000.40
2022-12-09T06:13:05.484Z,1000.42
2022-12-09T06:14:05.454Z,1000.41
2022-12-09T06:15:09.112Z,1000.39
2022-12-09T06:16:05.403Z,1000.42
2022-12-09T06:17:05.450Z,1000.44
2022-12-09T06:18:05.643Z,1000.40
2022-12-09T06:19:05.282Z,1000.42
2022-12-09T06:20:05.681Z,1000.42
2022-12-09T06:21:05.465Z,1000.44
2022-12-09T06:22:05.441Z,1000.41
2022-12-09T06:23:04.977Z,1000.39
2022-12-09T06:24:05.028Z,1000.39
2022-12-09T06:25:04.914Z,1000.39
2022-12-09T06:26:05.046Z,1000.40
2022-12-09T06:27:05.237Z,1000.38
2022-12-09T06:28:04.887Z,1000.40
2022-12-09T06:29:04.875Z,1000.37
2022-12-09T06:30:05.239Z,1000.35
2022-12-09T06:31:05.107Z,1000.38
2022-12-09T06:32:04.853Z,1000.36
2022-12-09T06:33:12.981Z,1000.40
2022-12-09T06:34:04.842Z,1000.41
2022-12-09T06:35:04.990Z,1000.42
2022-12-09T06:36:04.729Z,1000.43
2022-12-09T06:37:04.674Z,1000.40
2022-12-09T06:38:04.688Z,1000.36
2022-12-09T06:39:09.978Z,1000.41
2022-12-09T06:40:04.622Z,1000.39
2022-12-09T06:41:04.681Z,1000.38
2022-12-09T06:42:04.506Z,1000.38
2022-12-09T06:43:04.462Z,1000.39
2022-12-09T06:44:04.779Z,1000.38
2022-12-09T06:45:04.903Z,1000.36
2022-12-09T06:46:04.338Z,1000.37
2022-12-09T06:47:04.723Z,1000.34
2022-12-09T06:48:04.391Z,1000.35
2022-12-09T06:49:04.763Z,1000.36
2022-12-09T06:50:06.896Z,1000.34
2022-12-09T06:51:04.522Z,1000.36
2022-12-09T06:52:04.505Z,1000.34
2022-12-09T06:53:04.378Z,1000.33
2022-12-09T06:54:04.535Z,1000.32
2022-12-09T06:55:04.175Z,1000.34
2022-12-09T06:56:11.054Z,1000.33
2022-12-09T06:57:04.434Z,1000.31
2022-12-09T06:58:04.332Z,1000.32
2022-12-09T06:59:04.031Z,1000.30
2022-12-09T07:00:04.259Z,1000.35
2022-12-09T07:01:04.503Z,1000.34
2022-12-09T07:02:04.110Z,1000.33
2022-12-09T07:03:04.215Z,1000.39
2022-12-09T07:04:04.314Z,1000.36
2022-12-09T07:05:04.171Z,1000.39
2022-12-09T07:06:04.144Z,1000.40
2022-12-09T07:07:04.150Z,1000.38
2022-12-09T07:08:03.955Z,1000.43
2022-12-09T07:09:03.988Z,1000.44
2022-12-09T07:10:04.101Z,1000.42
2022-12-09T07:11:03.809Z,1000.43
2022-12-09T07:12:03.697Z,1000.45
2022-12-09T07:13:03.718Z,1000.46
2022-12-09T07:14:03.718Z,1000.48
2022-12-09T07:15:04.065Z,1000.48
2022-12-09T07:16:03.831Z,1000.48
2022-12-09T07:17:03.851Z,1000.48
2022-12-09T07:18:03.688Z,1000.53
2022-12-09T07:19:03.635Z,1000.54
2022-12-09T07:20:06.985Z,1000.53
2022-12-09T07:21:03.372Z,1000.54
2022-12-09T07:22:03.668Z,1000.61
2022-12-09T07:23:03.475Z,1000.56
2022-12-09T07:24:03.828Z,1000.58
2022-12-09T07:25:03.624Z,1000.59
2022-12-09T07:26:03.584Z,1000.57
2022-12-09T07:27:08.071Z,1000.58
2022-12-09T07:28:03.185Z,1000.61
2022-12-09T07:29:03.270Z,1000.60
2022-12-09T07:30:03.387Z,1000.62
2022-12-09T07:31:03.219Z,1000.61
2022-12-09T07:32:03.215Z,1000.59
2022-12-09T07:33:03.145Z,1000.58
2022-12-09T07:34:03.286Z,1000.56
2022-12-09T07:35:03.207Z,1000.60
2022-12-09T07:36:03.111Z,1000.60
2022-12-09T07:37:03.240Z,1000.59
2022-12-09T07:38:03.049Z,1000.60
2022-12-09T07:39:03.250Z,1000.61
2022-12-09T07:40:03.240Z,1000.62
2022-12-09T07:41:02.945Z,1000.61
2022-12-09T07:42:03.103Z,1000.64
2022-12-09T07:43:03.109Z,1000.66
2022-12-09T07:44:02.795Z,1000.66
2022-12-09T07:45:02.995Z,1000.65
2022-12-09T07:46:02.797Z,1000.64
2022-12-09T07:47:02.731Z,1000.64
2022-12-09T07:48:03.163Z,1000.68
2022-12-09T07:49:02.738Z,1000.70
2022-12-09T07:50:06.564Z,1000.65
2022-12-09T07:51:02.785Z,1000.69
2022-12-09T07:52:02.645Z,1000.70
2022-12-09T07:53:02.607Z,1000.67
2022-12-09T07:54:02.665Z,1000.69
2022-12-09T07:55:02.508Z,1000.72
2022-12-09T07:56:02.458Z,1000.71
2022-12-09T07:57:02.370Z,1000.72
2022-12-09T07:58:02.397Z,1000.68
2022-12-09T07:59:02.284Z,1000.75
2022-12-09T08:00:02.781Z,1000.74
2022-12-09T08:01:02.341Z,1000.73
2022-12-09T08:02:05.948Z,1000.72
2022-12-09T08:03:02.568Z,1000.73
2022-12-09T08:04:02.483Z,1000.74
2022-12-09T08:05:02.470Z,1000.75
2022-12-09T08:06:02.568Z,1000.74
2022-12-09T08:07:02.612Z,1000.72
2022-12-09T08:08:02.311Z,1000.74
2022-12-09T08:09:02.263Z,1000.70
2022-12-09T08:10:02.209Z,1000.70
2022-12-09T08:11:02.330Z,1000.70
2022-12-09T08:12:02.101Z,1000.71
2022-12-09T08:13:01.906Z,1000.73
2022-12-09T08:14:07.168Z,1000.75
2022-12-09T08:15:02.311Z,1000.77
2022-12-09T08:16:01.941Z,1000.79
2022-12-09T08:17:01.913Z,1000.78
2022-12-09T08:18:01.806Z,1000.80
2022-12-09T08:19:01.800Z,1000.81
2022-12-09T08:20:02.220Z,1000.83
2022-12-09T08:21:02.098Z,1000.85
2022-12-09T08:22:01.775Z,1000.80
2022-12-09T08:23:01.671Z,1000.80
2022-12-09T08:24:01.896Z,1000.85
2022-12-09T08:25:01.987Z,1000.83
2022-12-09T08:26:01.811Z,1000.80
2022-12-09T08:27:01.946Z,1000.79
2022-12-09T08:28:01.939Z,1000.85
2022-12-09T08:29:01.956Z,1000.86
2022-12-09T08:30:01.778Z,1000.85
2022-12-09T08:31:01.967Z,1000.84
2022-12-09T08:32:01.537Z,1000.86
2022-12-09T08:33:01.751Z,1000.83
2022-12-09T08:34:01.607Z,1000.87
2022-12-09T08:35:01.938Z,1000.84
2022-12-09T08:36:01.424Z,1000.83
2022-12-09T08:37:02.380Z,1000.84
2022-12-09T08:38:01.618Z,1000.81
2022-12-09T08:39:01.356Z,1000.78
2022-12-09T08:40:01.500Z,1000.85
2022-12-09T08:41:01.324Z,1000.79
2022-12-09T08:42:01.065Z,1000.80
2022-12-09T08:43:01.236Z,1000.80
2022-12-09T08:44:01.167Z,1000.79
2022-12-09T08:45:03.001Z,1000.79
2022-12-09T08:46:01.189Z,1000.81
2022-12-09T08:47:01.136Z,1000.81
2022-12-09T08:48:01.302Z,1000.78
2022-12-09T08:49:01.057Z,1000.80
2022-12-09T08:50:01.077Z,1000.83
2022-12-09T08:51:01.249Z,1000.82
2022-12-09T08:52:01.181Z,1000.82
2022-12-09T08:53:01.082Z,1000.83
2022-12-09T08:54:01.281Z,1000.82
2022-12-09T08:55:00.820Z,1000.81
2022-12-09T08:56:00.712Z,1000.82
2022-12-09T08:57:01.093Z,1000.79
2022-12-09T08:58:00.828Z,1000.80
2022-12-09T08:59:00.760Z,1000.82
2022-12-09T09:00:00.721Z,1000.83
2022-12-09T09:01:00.872Z,1000.85
2022-12-09T09:02:01.007Z,1000.84
2022-12-09T09:03:00.953Z,1000.85
2022-12-09T09:04:00.792Z,1000.87
2022-12-09T09:05:00.767Z,1000.84
2022-12-09T09:06:07.061Z,1000.89
2022-12-09T09:07:00.631Z,1000.88
2022-12-09T09:08:00.391Z,1000.90
2022-12-09T09:09:00.561Z,1000.92
2022-12-09T09:10:00.478Z,1000.91
2022-12-09T09:11:00.855Z,1000.88
2022-12-09T09:12:00.580Z,1000.92
2022-12-09T09:13:00.323Z,1000.91
2022-12-09T09:14:00.545Z,1000.90
2022-12-09T09:15:00.567Z,1000.89
2022-12-09T09:16:00.312Z,1000.92
2022-12-09T09:17:00.179Z,1000.90
2022-12-09T09:18:00.538Z,1000.92
2022-12-09T09:19:00.283Z,1000.92
2022-12-09T09:20:00.190Z,1000.93
2022-12-09T09:21:00.510Z,1000.96
2022-12-09T09:22:00.017Z,1000.96
2022-12-09T09:23:03.325Z,1000.92
2022-12-09T09:24:00.495Z,1000.95
2022-12-09T09:25:00.230Z,1000.98
2022-12-09T09:25:59.932Z,1000.96
2022-12-09T09:26:59.782Z,1000.94
2022-12-09T09:27:59.779Z,1001.01
2022-12-09T09:28:59.856Z,1001.00
2022-12-09T09:30:00.052Z,1000.97
2022-12-09T09:30:59.841Z,1000.99
2022-12-09T09:32:00.230Z,1000.98
2022-12-09T09:33:00.078Z,1001.04
2022-12-09T09:34:00.005Z,1001.00
2022-12-09T09:34:59.763Z,1001.02
2022-12-09T09:36:02.733Z,1000.99
2022-12-09T09:36:59.923Z,1001.01
2022-12-09T09:37:59.484Z,1000.98
2022-12-09T09:38:59.574Z,1000.99
2022-12-09T09:39:59.692Z,1000.98
2022-12-09T09:40:59.480Z,1001.00
2022-12-09T09:42:04.631Z,1001.01
2022-12-09T09:42:59.392Z,1001.03
2022-12-09T09:43:59.880Z,1001.04
2022-12-09T09:44:59.583Z,1001.04
2022-12-09T09:45:59.487Z,1001.07
2022-12-09T09:46:59.517Z,1001.05
2022-12-09T09:47:59.326Z,1001.08
2022-12-09T09:48:59.454Z,1001.07
2022-12-09T09:49:59.618Z,1001.07
2022-12-09T09:50:59.173Z,1001.11
2022-12-09T09:51:59.225Z,1001.09
2022-12-09T09:52:59.157Z,1001.08
2022-12-09T09:54:05.099Z,1001.09
2022-12-09T09:54:59.366Z,1001.08
2022-12-09T09:55:59.152Z,1001.04
2022-12-09T09:56:59.387Z,1001.02
2022-12-09T09:57:59.009Z,1001.04
2022-12-09T09:58:58.953Z,1001.02
2022-12-09T10:00:05.029Z,1001.02
2022-12-09T10:00:59.140Z,1001.00
2022-12-09T10:01:59.288Z,1000.99
2022-12-09T10:02:59.528Z,1000.98
2022-12-09T10:03:59.185Z,1000.97
2022-12-09T10:04:59.182Z,1000.95
2022-12-09T10:05:59.401Z,1000.95
2022-12-09T10:07:04.126Z,1000.95
2022-12-09T10:07:59.312Z,1000.96
2022-12-09T10:08:59.406Z,1000.95
2022-12-09T10:09:58.909Z,1000.92
2022-12-09T10:10:58.785Z,1000.93
2022-12-09T10:11:58.798Z,1000.94
2022-12-09T10:13:05.841Z,1000.95
2022-12-09T10:13:58.712Z,1000.89
2022-12-09T10:14:59.029Z,1000.90
2022-12-09T10:15:58.653Z,1000.85
2022-12-09T10:16:58.616Z,1000.89
2022-12-09T10:17:58.753Z,1000.88
2022-12-09T10:19:02.664Z,1000.86
2022-12-09T10:19:58.514Z,1000.85
2022-12-09T10:20:58.347Z,1000.85
2022-12-09T10:21:58.355Z,1000.84
2022-12-09T10:22:58.369Z,1000.82
2022-12-09T10:23:58.714Z,1000.83
2022-12-09T10:24:58.904Z,1000.83
2022-12-09T10:25:58.499Z,1000.83
2022-12-09T10:26:58.554Z,1000.83
2022-12-09T10:27:58.250Z,1000.83
2022-12-09T10:28:58.669Z,1000.84
2022-12-09T10:29:58.403Z,1000.83
2022-12-09T10:30:58.278Z,1000.81
2022-12-09T10:31:58.543Z,1000.81
2022-12-09T10:32:58.128Z,1000.76
2022-12-09T10:33:58.115Z,1000.79
2022-12-09T10:34:58.176Z,1000.76
2022-12-09T10:35:58.417Z,1000.77
2022-12-09T10:36:57.885Z,1000.77
2022-12-09T10:37:57.826Z,1000.75
2022-12-09T10:38:58.216Z,1000.78
2022-12-09T10:39:58.127Z,1000.78
2022-12-09T10:40:57.853Z,1000.79
2022-12-09T10:41:57.778Z,1000.80
2022-12-09T10:42:58.106Z,1000.80
2022-12-09T10:43:58.004Z,1000.80
2022-12-09T10:44:57.999Z,1000.82
2022-12-09T10:46:58.095Z,1000.86
2022-12-09T10:47:57.691Z,1000.82
2022-12-09T10:48:58.088Z,1000.86
2022-12-09T10:49:57.729Z,1000.84
2022-12-09T10:50:57.749Z,1000.82
2022-12-09T10:51:57.589Z,1000.84
2022-12-09T10:52:57.368Z,1000.83
2022-12-09T10:53:57.685Z,1000.86
2022-12-09T10:54:57.365Z,1000.84
2022-12-09T10:55:57.423Z,1000.83
2022-12-09T10:56:57.558Z,1000.86
2022-12-09T10:57:57.679Z,1000.85
2022-12-09T10:58:57.240Z,1000.86
2022-12-09T10:59:58.506Z,1000.85
2022-12-09T11:00:57.699Z,1000.81
2022-12-09T11:01:57.635Z,1000.82
2022-12-09T11:02:57.591Z,1000.81
2022-12-09T11:03:57.299Z,1000.84
2022-12-09T11:04:57.246Z,1000.79
2022-12-09T11:05:57.305Z,1000.82
2022-12-09T11:06:59.846Z,1000.80
2022-12-09T11:07:57.206Z,1000.81
2022-12-09T11:08:57.719Z,1000.82
2022-12-09T11:09:57.633Z,1000.83
2022-12-09T11:10:57.044Z,1000.82
2022-12-09T11:11:56.988Z,1000.82
2022-12-09T11:12:57.286Z,1000.79
2022-12-09T11:13:57.069Z,1000.76
2022-12-09T11:14:56.946Z,1000.74
2022-12-09T11:15:56.843Z,1000.77
2022-12-09T11:16:57.263Z,1000.76
2022-12-09T11:17:56.982Z,1000.70
2022-12-09T11:18:56.977Z,1000.69
2022-12-09T11:19:56.830Z,1000.68
2022-12-09T11:20:57.069Z,1000.70
2022-12-09T11:21:56.930Z,1000.70
2022-12-09T11:22:56.990Z,1000.64
2022-12-09T11:24:02.873Z,1000.66
2022-12-09T11:24:56.754Z,1000.66
2022-12-09T11:25:56.548Z,1000.65
2022-12-09T11:26:58.016Z,1000.64
2022-12-09T11:27:56.461Z,1000.63
2022-12-09T11:28:56.395Z,1000.63
2022-12-09T11:29:56.466Z,1000.64
2022-12-09T11:31:56.446Z,1000.64
2022-12-09T11:32:56.690Z,1000.61
2022-12-09T11:33:56.841Z,1000.60
2022-12-09T11:34:56.758Z,1000.61
2022-12-09T11:35:56.611Z,1000.64
2022-12-09T11:36:56.137Z,1000.60
2022-12-09T11:37:56.113Z,1000.60
2022-12-09T11:38:56.080Z,1000.62
2022-12-09T11:39:56.062Z,1000.59
2022-12-09T11:40:56.023Z,1000.57
2022-12-09T11:41:56.002Z,1000.55
2022-12-09T11:42:55.967Z,1000.55
2022-12-09T11:43:55.945Z,1000.53
2022-12-09T11:44:55.913Z,1000.54
2022-12-09T11:45:55.891Z,1000.53
2022-12-09T11:46:55.938Z,1000.57
2022-12-09T11:48:25.819Z,1000.52
2022-12-09T11:48:55.828Z,1000.54
2022-12-09T11:49:55.812Z,1000.57
2022-12-09T11:50:55.747Z,1000.57
2022-12-09T11:51:55.721Z,1000.58
2022-12-09T11:52:55.688Z,1000.57
2022-12-09T11:53:57.655Z,1000.55
2022-12-09T11:54:55.637Z,1000.50
2022-12-09T11:55:55.617Z,1000.46
2022-12-09T11:56:55.584Z,1000.49
2022-12-09T11:57:55.552Z,1000.51
2022-12-09T11:58:55.529Z,1000.48
2022-12-09T11:59:55.502Z,1000.46
2022-12-09T12:00:55.471Z,1000.46
2022-12-09T12:01:55.518Z,1000.49
2022-12-09T12:02:55.585Z,1000.49
2022-12-09T12:03:55.386Z,1000.53
2022-12-09T12:04:55.376Z,1000.50
2022-12-09T12:05:55.373Z,1000.46
2022-12-09T12:06:55.299Z,1000.47